Time;durP1;ratioP1;P1;durP2;ratioP2;P2;SDS_P1;SDS_P2;PMS_P1;PMS_P2;Temp;Humidity;BMP_temperature;BMP_pressure;BME280_temperature;BME280_humidity;BME280_pressure;Samples;Min_cycle;Max_cycle;Signal;HPM_P1;HPM_P2
2022/07/18 00:02:02;;;;;;;8.35;5.80;;;;;;;;;;5059261;28;20421;-75
2022/07/18 00:04:29;;;;;;;7.55;5.70;;;;;;;;;;5058797;28;20425;-75
2022/07/18 00:06:56;;;;;;;7.67;6.03;;;;;;;;;;5059661;28;20775;-74
2022/07/18 00:09:23;;;;;;;6.90;5.78;;;;;;;;;;5060288;28;20771;-75
2022/07/18 00:11:49;;;;;;;8.23;5.97;;;;;;;;;;5060374;28;20411;-74
2022/07/18 00:14:17;;;;;;;8.57;6.20;;;;;;;;;;5059443;28;20413;-75
2022/07/18 00:16:43;;;;;;;9.00;6.10;;;;;;;;;;5060672;28;20779;-75
2022/07/18 00:19:10;;;;;;;6.40;5.80;;;;;;;;;;5058098;28;20416;-75
2022/07/18 00:21:36;;;;;;;7.78;6.20;;;;;;;;;;5060721;28;20422;-75
2022/07/18 00:24:03;;;;;;;8.60;6.60;;;;;;;;;;5057936;28;20440;-75
2022/07/18 00:26:29;;;;;;;7.25;5.85;;;;;;;;;;5060377;28;20409;-74
2022/07/18 00:28:55;;;;;;;6.43;5.70;;;;;;;;;;5058615;28;20423;-75
2022/07/18 00:31:23;;;;;;;6.65;5.90;;;;;;;;;;5058989;28;20417;-74
2022/07/18 00:33:49;;;;;;;9.18;6.57;;;;;;;;;;5058261;28;20429;-75
2022/07/18 00:36:16;;;;;;;9.15;5.60;;;;;;;;;;5058784;28;20413;-75
2022/07/18 00:38:42;;;;;;;7.60;5.93;;;;;;;;;;5058933;28;20417;-75
2022/07/18 00:41:09;;;;;;;5.90;5.30;;;;;;;;;;5058775;28;20415;-75
2022/07/18 00:43:35;;;;;;;8.25;6.03;;;;;;;;;;5058646;28;20428;-75
2022/07/18 00:46:01;;;;;;;7.63;5.70;;;;;;;;;;5059734;28;20449;-75
2022/07/18 00:48:29;;;;;;;6.43;5.82;;;;;;;;;;5058366;28;20425;-75
2022/07/18 00:50:55;;;;;;;7.93;5.80;;;;;;;;;;5060424;28;20464;-75
2022/07/18 00:53:23;;;;;;;6.65;5.97;;;;;;;;;;5057831;28;20422;-75
2022/07/18 00:55:50;;;;;;;6.13;5.47;;;;;;;;;;5059944;28;20427;-74
2022/07/18 00:58:16;;;;;;;7.28;5.70;;;;;;;;;;5056599;28;20897;-75
2022/07/18 01:03:27;;;;;;;7.00;5.60;;;;;;;;;;5058465;28;20475;-75
2022/07/18 01:05:54;;;;;;;8.80;5.90;;;;;;;;;;5058621;28;20426;-75
2022/07/18 01:08:21;;;;;;;7.13;6.25;;;;;;;;;;5059026;28;20425;-75
2022/07/18 01:10:47;;;;;;;7.33;5.70;;;;;;;;;;5058820;28;20413;-75
2022/07/18 01:13:13;;;;;;;7.47;6.00;;;;;;;;;;5057804;28;20435;-74
2022/07/18 01:15:40;;;;;;;8.70;5.72;;;;;;;;;;5058986;28;20425;-74
2022/07/18 01:18:06;;;;;;;6.00;5.40;;;;;;;;;;5058666;28;20517;-75
2022/07/18 01:20:34;;;;;;;8.05;6.38;;;;;;;;;;5059301;28;20415;-75
2022/07/18 01:23:00;;;;;;;9.50;5.70;;;;;;;;;;5058035;28;20417;-75
2022/07/18 01:25:27;;;;;;;7.60;5.90;;;;;;;;;;5058938;28;20419;-75
2022/07/18 01:27:55;;;;;;;7.22;5.78;;;;;;;;;;5058141;28;20424;-75
2022/07/18 01:30:21;;;;;;;9.48;6.10;;;;;;;;;;5057761;28;20808;-75
2022/07/18 01:32:55;;;;;;;7.00;6.30;;;;;;;;;;5057723;28;20901;-75
2022/07/18 01:35:22;;;;;;;7.03;5.85;;;;;;;;;;5058093;28;20770;-75
2022/07/18 01:37:51;;;;;;;7.50;6.00;;;;;;;;;;5057998;28;20417;-75
2022/07/18 01:40:17;;;;;;;9.90;6.30;;;;;;;;;;5057900;28;20905;-74
2022/07/18 01:42:43;;;;;;;7.18;6.00;;;;;;;;;;5058337;28;20416;-75
2022/07/18 01:45:10;;;;;;;7.50;5.75;;;;;;;;;;5056530;28;20416;-75
2022/07/18 01:47:36;;;;;;;6.63;5.93;;;;;;;;;;5056509;28;20769;-75
2022/07/18 01:50:03;;;;;;;7.50;6.00;;;;;;;;;;5057779;28;20424;-75
2022/07/18 01:52:30;;;;;;;7.05;6.13;;;;;;;;;;5058367;28;20406;-74
2022/07/18 01:54:57;;;;;;;8.20;5.70;;;;;;;;;;5057886;28;20422;-75
2022/07/18 01:57:24;;;;;;;7.15;5.63;;;;;;;;;;5058453;28;20748;-75
2022/07/18 01:59:50;;;;;;;10.80;6.10;;;;;;;;;;5058327;28;20812;-75
2022/07/18 02:02:17;;;;;;;6.50;5.40;;;;;;;;;;5057365;28;20787;-75
2022/07/18 02:05:02;;;;;;;6.72;6.03;;;;;;;;;;5057425;28;20420;-75
2022/07/18 02:07:29;;;;;;;7.60;5.70;;;;;;;;;;5056622;28;20878;-74
2022/07/18 02:09:55;;;;;;;7.15;5.57;;;;;;;;;;5057968;28;20427;-74
2022/07/18 02:12:23;;;;;;;7.25;5.60;;;;;;;;;;5056381;28;20420;-75
2022/07/18 02:14:50;;;;;;;8.07;5.45;;;;;;;;;;5058181;28;20778;-75
2022/07/18 02:17:16;;;;;;;7.40;5.55;;;;;;;;;;5056059;28;20412;-75
2022/07/18 02:19:43;;;;;;;5.90;5.30;;;;;;;;;;5057295;28;20411;-75
2022/07/18 02:22:09;;;;;;;5.68;4.90;;;;;;;;;;5055496;28;20423;-75
2022/07/18 02:24:35;;;;;;;6.97;5.30;;;;;;;;;;5057382;28;20415;-74
2022/07/18 02:27:01;;;;;;;8.98;5.70;;;;;;;;;;5056940;28;20892;-75
2022/07/18 02:29:29;;;;;;;6.68;5.43;;;;;;;;;;5057275;28;20428;-75
2022/07/18 02:31:55;;;;;;;7.80;5.38;;;;;;;;;;5056598;28;20411;-75
2022/07/18 02:34:22;;;;;;;6.45;5.10;;;;;;;;;;5056486;28;20413;-75
2022/07/18 02:36:50;;;;;;;7.10;5.20;;;;;;;;;;5056679;28;20416;-74
2022/07/18 02:39:17;;;;;;;6.93;5.30;;;;;;;;;;5055493;28;20413;-74
2022/07/18 02:41:43;;;;;;;6.50;5.50;;;;;;;;;;5056772;28;20411;-75
2022/07/18 02:44:10;;;;;;;6.30;4.82;;;;;;;;;;5056221;28;20417;-75
2022/07/18 02:46:38;;;;;;;8.67;5.23;;;;;;;;;;5057213;28;20416;-75
2022/07/18 02:49:04;;;;;;;6.75;5.57;;;;;;;;;;5055516;28;20419;-74
2022/07/18 02:51:30;;;;;;;5.38;4.88;;;;;;;;;;5056957;28;20451;-74
2022/07/18 02:53:57;;;;;;;6.50;5.07;;;;;;;;;;5055392;28;20788;-75
2022/07/18 02:56:23;;;;;;;5.68;5.07;;;;;;;;;;5056922;28;20450;-75
2022/07/18 02:58:49;;;;;;;6.05;5.13;;;;;;;;;;5057632;28;20413;-75
2022/07/18 03:01:16;;;;;;;7.65;4.90;;;;;;;;;;5057132;28;20439;-75
2022/07/18 03:03:43;;;;;;;5.85;4.80;;;;;;;;;;5055136;28;20411;-75
2022/07/18 03:06:10;;;;;;;6.53;5.40;;;;;;;;;;5056384;28;20419;-75
2022/07/18 03:08:36;;;;;;;6.60;5.37;;;;;;;;;;5056462;28;20426;-75
2022/07/18 03:11:03;;;;;;;7.10;5.80;;;;;;;;;;5057151;28;20427;-75
2022/07/18 03:13:29;;;;;;;7.10;5.40;;;;;;;;;;5056436;28;20875;-75
2022/07/18 03:15:55;;;;;;;7.03;5.03;;;;;;;;;;5056272;28;20421;-75
2022/07/18 03:18:24;;;;;;;6.35;4.97;;;;;;;;;;5055866;28;20421;-75
2022/07/18 03:20:52;;;;;;;6.97;5.53;;;;;;;;;;5057391;28;20490;-75
2022/07/18 03:23:18;;;;;;;8.10;6.10;;;;;;;;;;5056902;28;20979;-75
2022/07/18 03:25:45;;;;;;;5.90;5.10;;;;;;;;;;5057349;28;20443;-75
2022/07/18 03:28:11;;;;;;;9.38;5.45;;;;;;;;;;5055633;28;20781;-75
2022/07/18 03:30:37;;;;;;;6.18;4.80;;;;;;;;;;5055545;28;20421;-75
2022/07/18 03:33:03;;;;;;;7.27;5.47;;;;;;;;;;5054984;28;20416;-75
2022/07/18 03:35:30;;;;;;;6.63;4.80;;;;;;;;;;5056505;28;20435;-75
2022/07/18 03:37:57;;;;;;;6.10;4.55;;;;;;;;;;5055895;28;20866;-74
2022/07/18 03:40:24;;;;;;;7.15;5.20;;;;;;;;;;5055293;28;20415;-75
2022/07/18 03:42:50;;;;;;;7.28;5.05;;;;;;;;;;5055668;28;20907;-75
2022/07/18 03:45:16;;;;;;;5.83;4.80;;;;;;;;;;5054007;28;20417;-75
2022/07/18 03:47:43;;;;;;;8.00;4.68;;;;;;;;;;5056167;28;20419;-75
2022/07/18 03:50:09;;;;;;;6.55;4.90;;;;;;;;;;5055128;28;20427;-75
2022/07/18 03:52:36;;;;;;;7.47;5.15;;;;;;;;;;5056132;28;20420;-75
2022/07/18 03:55:04;;;;;;;6.75;5.18;;;;;;;;;;5055098;28;20414;-75
2022/07/18 03:57:30;;;;;;;6.18;5.30;;;;;;;;;;5055153;28;20421;-75
2022/07/18 03:59:56;;;;;;;5.90;4.82;;;;;;;;;;5055011;28;20425;-75
2022/07/18 04:02:23;;;;;;;8.35;5.25;;;;;;;;;;5054459;28;20439;-75
2022/07/18 04:04:49;;;;;;;7.90;5.20;;;;;;;;;;5054783;28;20423;-74
2022/07/18 04:07:15;;;;;;;7.13;5.10;;;;;;;;;;5060216;28;20413;-75
2022/07/18 04:09:42;;;;;;;5.38;4.70;;;;;;;;;;5060526;28;20427;-75
2022/07/18 04:12:09;;;;;;;6.05;4.90;;;;;;;;;;5060144;28;20419;-74
2022/07/18 04:14:36;;;;;;;7.05;5.10;;;;;;;;;;5059033;28;20421;-75
2022/07/18 04:17:02;;;;;;;6.53;4.88;;;;;;;;;;5060003;28;20421;-75
2022/07/18 04:19:28;;;;;;;7.33;5.03;;;;;;;;;;5058001;28;20409;-75
2022/07/18 04:21:55;;;;;;;7.53;4.78;;;;;;;;;;5059434;28;20778;-75
2022/07/18 04:24:21;;;;;;;5.82;4.80;;;;;;;;;;5059164;28;20423;-75
2022/07/18 04:26:47;;;;;;;6.20;5.10;;;;;;;;;;5060631;28;20418;-75
2022/07/18 04:29:15;;;;;;;8.13;5.30;;;;;;;;;;5058957;28;20432;-74
2022/07/18 04:31:41;;;;;;;5.30;4.53;;;;;;;;;;5060194;28;20412;-75
2022/07/18 04:34:07;;;;;;;6.70;5.05;;;;;;;;;;5057693;28;20418;-74
2022/07/18 04:36:34;;;;;;;7.53;5.22;;;;;;;;;;5059446;28;20416;-75
2022/07/18 04:39:00;;;;;;;7.55;5.38;;;;;;;;;;5056730;28;20475;-74
2022/07/18 04:41:26;;;;;;;5.88;5.20;;;;;;;;;;5059166;28;20415;-75
2022/07/18 04:43:53;;;;;;;7.97;5.57;;;;;;;;;;5057474;28;20422;-75
2022/07/18 04:46:20;;;;;;;7.63;5.38;;;;;;;;;;5059667;28;20416;-75
2022/07/18 04:48:47;;;;;;;6.53;5.03;;;;;;;;;;5057380;28;20411;-75
2022/07/18 04:51:13;;;;;;;7.28;5.47;;;;;;;;;;5059359;28;20437;-75
2022/07/18 04:53:39;;;;;;;6.80;4.63;;;;;;;;;;5058527;28;20441;-75
2022/07/18 04:56:06;;;;;;;6.97;5.20;;;;;;;;;;5056924;28;20420;-75
2022/07/18 04:58:32;;;;;;;6.35;4.82;;;;;;;;;;5058413;28;20772;-75
2022/07/18 05:00:58;;;;;;;6.47;5.13;;;;;;;;;;5059006;28;20410;-75
2022/07/18 05:03:26;;;;;;;8.13;4.68;;;;;;;;;;5057253;28;20416;-75
2022/07/18 05:05:52;;;;;;;8.07;4.63;;;;;;;;;;5058444;28;20417;-74
2022/07/18 05:08:19;;;;;;;7.07;5.47;;;;;;;;;;5056923;28;20429;-75
2022/07/18 05:10:45;;;;;;;6.95;4.40;;;;;;;;;;5058490;28;20437;-75
2022/07/18 05:13:11;;;;;;;6.50;4.50;;;;;;;;;;5057856;28;20422;-75
2022/07/18 05:15:38;;;;;;;5.65;4.50;;;;;;;;;;5059654;28;20892;-75
2022/07/18 05:18:04;;;;;;;5.47;4.30;;;;;;;;;;5058508;28;20886;-75
2022/07/18 05:20:32;;;;;;;5.60;4.30;;;;;;;;;;5059011;28;20491;-75
2022/07/18 05:22:58;;;;;;;5.70;4.40;;;;;;;;;;5058455;28;20422;-75
2022/07/18 05:25:24;;;;;;;6.23;4.30;;;;;;;;;;5058944;28;20932;-75
2022/07/18 05:27:51;;;;;;;6.70;4.38;;;;;;;;;;5058888;28;20420;-75
2022/07/18 05:30:17;;;;;;;4.93;3.90;;;;;;;;;;5058386;28;20432;-75
2022/07/18 05:32:44;;;;;;;5.15;4.57;;;;;;;;;;5057609;28;20419;-74
2022/07/18 05:35:11;;;;;;;5.90;4.60;;;;;;;;;;5057520;28;20909;-75
2022/07/18 05:37:39;;;;;;;5.00;4.20;;;;;;;;;;5057791;28;20776;-75
2022/07/18 05:40:06;;;;;;;8.10;4.63;;;;;;;;;;5057987;28;20408;-75
2022/07/18 05:42:32;;;;;;;5.63;4.05;;;;;;;;;;5058147;28;20418;-75
2022/07/18 05:44:59;;;;;;;6.90;4.50;;;;;;;;;;5056894;28;20417;-75
2022/07/18 05:47:25;;;;;;;5.75;4.50;;;;;;;;;;5056489;28;20428;-75
2022/07/18 05:49:51;;;;;;;7.50;4.40;;;;;;;;;;5058033;28;20436;-75
2022/07/18 05:52:18;;;;;;;5.38;4.20;;;;;;;;;;5057570;28;20411;-75
2022/07/18 05:54:45;;;;;;;4.32;3.90;;;;;;;;;;5058397;28;20419;-75
2022/07/18 05:57:12;;;;;;;5.10;3.70;;;;;;;;;;5056783;28;20420;-75
2022/07/18 05:59:38;;;;;;;7.20;5.87;;;;;;;;;;5057713;28;20838;-75
2022/07/18 06:02:04;;;;;;;8.52;5.82;;;;;;;;;;5057253;28;20411;-75
2022/07/18 06:04:31;;;;;;;4.63;4.03;;;;;;;;;;5055573;28;20415;-75
2022/07/18 06:06:57;;;;;;;8.23;4.10;;;;;;;;;;5056793;28;20422;-75
2022/07/18 06:09:24;;;;;;;5.55;4.00;;;;;;;;;;5056554;28;20421;-75
2022/07/18 06:11:52;;;;;;;6.30;4.10;;;;;;;;;;5058349;28;20438;-75
2022/07/18 06:14:18;;;;;;;4.70;3.90;;;;;;;;;;5056489;28;20422;-75
2022/07/18 06:16:45;;;;;;;7.10;4.10;;;;;;;;;;5058318;28;20421;-74
2022/07/18 06:19:11;;;;;;;8.98;4.20;;;;;;;;;;5056269;28;20415;-75
2022/07/18 06:21:37;;;;;;;8.50;4.50;;;;;;;;;;5057818;28;20797;-75
2022/07/18 06:24:04;;;;;;;6.63;4.20;;;;;;;;;;5056945;28;20413;-75
2022/07/18 06:26:30;;;;;;;4.10;3.70;;;;;;;;;;5058182;28;20414;-75
2022/07/18 06:28:58;;;;;;;5.63;4.30;;;;;;;;;;5055808;28;20413;-75
2022/07/18 06:31:24;;;;;;;7.35;3.88;;;;;;;;;;5058645;28;20424;-75
2022/07/18 06:33:50;;;;;;;6.55;3.90;;;;;;;;;;5056308;28;20789;-75
2022/07/18 06:36:17;;;;;;;7.72;4.10;;;;;;;;;;5056441;28;20412;-75
2022/07/18 06:38:44;;;;;;;7.10;4.20;;;;;;;;;;5071551;22;20485;-75
2022/07/18 06:41:10;;;;;;;5.63;4.30;;;;;;;;;;5057292;28;20412;-75
2022/07/18 06:43:37;;;;;;;6.70;3.50;;;;;;;;;;5057007;28;20421;-75
2022/07/18 06:46:04;;;;;;;3.80;3.33;;;;;;;;;;5056979;28;20413;-74
2022/07/18 06:48:33;;;;;;;6.28;3.88;;;;;;;;;;5055746;28;20417;-75
2022/07/18 06:51:00;;;;;;;4.95;3.40;;;;;;;;;;5056964;28;20516;-75
2022/07/18 06:53:26;;;;;;;4.65;3.38;;;;;;;;;;5055711;28;20530;-75
2022/07/18 06:55:53;;;;;;;6.82;3.65;;;;;;;;;;5056890;28;20417;-75
2022/07/18 06:58:19;;;;;;;5.82;3.80;;;;;;;;;;5056192;28;20426;-75
2022/07/18 07:00:45;;;;;;;5.75;3.28;;;;;;;;;;5057788;28;20409;-75
2022/07/18 07:03:13;;;;;;;4.60;3.47;;;;;;;;;;5053463;28;20443;-75
2022/07/18 07:05:39;;;;;;;3.92;3.47;;;;;;;;;;5057380;28;20416;-75
2022/07/18 07:08:06;;;;;;;6.80;3.33;;;;;;;;;;5054867;28;20422;-75
2022/07/18 07:10:32;;;;;;;6.85;3.45;;;;;;;;;;5056456;28;20441;-75
2022/07/18 07:12:59;;;;;;;7.33;3.20;;;;;;;;;;5055943;28;20421;-75
2022/07/18 07:15:25;;;;;;;6.00;3.10;;;;;;;;;;5057895;28;20419;-75
2022/07/18 07:17:52;;;;;;;5.17;3.53;;;;;;;;;;5055635;28;20420;-75
2022/07/18 07:20:21;;;;;;;4.90;2.80;;;;;;;;;;5056948;28;20420;-74
2022/07/18 07:22:48;;;;;;;5.00;2.90;;;;;;;;;;5056208;28;20414;-75
2022/07/18 07:25:15;;;;;;;5.75;3.05;;;;;;;;;;5056714;28;20413;-74
2022/07/18 07:27:41;;;;;;;5.07;3.05;;;;;;;;;;5055747;28;20781;-75
2022/07/18 07:30:08;;;;;;;5.72;3.10;;;;;;;;;;5057204;28;20919;-75
2022/07/18 07:32:36;;;;;;;5.90;3.10;;;;;;;;;;5057201;28;20407;-75
2022/07/18 07:35:02;;;;;;;4.70;3.40;;;;;;;;;;5056934;28;20425;-75
2022/07/18 07:37:30;;;;;;;5.97;3.47;;;;;;;;;;5056429;28;21514;-75
2022/07/18 07:39:56;;;;;;;3.80;3.00;;;;;;;;;;5057168;28;20417;-75
2022/07/18 07:42:22;;;;;;;5.95;3.20;;;;;;;;;;5060706;28;20416;-75
2022/07/18 07:44:49;;;;;;;6.28;3.00;;;;;;;;;;5059344;28;20409;-75
2022/07/18 07:47:15;;;;;;;5.00;2.80;;;;;;;;;;5059991;28;20437;-75
2022/07/18 07:49:42;;;;;;;4.32;2.90;;;;;;;;;;5060356;28;20419;-75
2022/07/18 07:52:08;;;;;;;4.22;2.97;;;;;;;;;;5059875;28;20909;-75
2022/07/18 07:54:36;;;;;;;6.83;3.10;;;;;;;;;;5060220;28;20901;-75
2022/07/18 07:57:02;;;;;;;3.72;2.70;;;;;;;;;;5059757;28;20420;-75
2022/07/18 07:59:28;;;;;;;7.32;2.78;;;;;;;;;;5058841;28;20413;-75
2022/07/18 08:01:55;;;;;;;5.57;3.40;;;;;;;;;;5059607;28;20409;-75
2022/07/18 08:04:21;;;;;;;4.40;2.80;;;;;;;;;;5059609;28;20500;-75
2022/07/18 08:06:47;;;;;;;4.80;2.80;;;;;;;;;;5059737;28;20850;-75
2022/07/18 08:09:14;;;;;;;4.13;2.50;;;;;;;;;;5059139;28;20420;-75
2022/07/18 08:11:41;;;;;;;4.03;2.40;;;;;;;;;;5060400;28;20436;-75
2022/07/18 08:14:08;;;;;;;3.83;2.30;;;;;;;;;;5059248;28;20426;-75
2022/07/18 08:16:34;;;;;;;5.03;2.30;;;;;;;;;;5060123;28;20413;-75
2022/07/18 08:19:00;;;;;;;3.85;2.20;;;;;;;;;;5056858;28;20456;-75
2022/07/18 08:21:27;;;;;;;5.90;2.40;;;;;;;;;;5059444;28;20411;-75
2022/07/18 08:23:53;;;;;;;5.22;2.40;;;;;;;;;;5058534;28;20440;-75
2022/07/18 08:26:19;;;;;;;5.22;2.25;;;;;;;;;;5060320;28;20419;-75
2022/07/18 08:28:47;;;;;;;5.70;2.50;;;;;;;;;;5058771;28;20430;-75
2022/07/18 08:31:14;;;;;;;5.30;2.30;;;;;;;;;;5059416;28;20524;-75
2022/07/18 08:33:40;;;;;;;6.50;2.45;;;;;;;;;;5058083;28;20425;-75
2022/07/18 08:36:08;;;;;;;5.13;2.55;;;;;;;;;;5059441;28;20416;-75
2022/07/18 08:38:34;;;;;;;4.38;2.20;;;;;;;;;;5058973;28;20417;-75
2022/07/18 08:41:01;;;;;;;4.35;2.30;;;;;;;;;;5060354;28;20431;-75
2022/07/18 08:43:28;;;;;;;2.90;2.00;;;;;;;;;;5059231;28;20418;-75
2022/07/18 08:45:57;;;;;;;3.33;1.80;;;;;;;;;;5060238;28;20779;-75
2022/07/18 08:48:23;;;;;;;4.25;1.80;;;;;;;;;;5058233;28;20433;-75
2022/07/18 08:50:50;;;;;;;4.80;2.20;;;;;;;;;;5059665;28;21028;-75
2022/07/18 08:53:17;;;;;;;4.60;2.40;;;;;;;;;;5056692;28;20422;-75
2022/07/18 08:55:44;;;;;;;3.42;2.10;;;;;;;;;;5059618;28;20413;-75
2022/07/18 08:58:12;;;;;;;4.07;2.10;;;;;;;;;;5057536;28;20424;-75
2022/07/18 09:00:38;;;;;;;2.95;2.20;;;;;;;;;;5059713;28;20444;-75
2022/07/18 09:03:06;;;;;;;7.15;2.53;;;;;;;;;;5057836;28;20421;-75
2022/07/18 09:05:33;;;;;;;3.60;2.00;;;;;;;;;;5058438;28;20421;-75
2022/07/18 09:08:08;;;;;;;5.32;2.20;;;;;;;;;;5057613;28;20417;-75
2022/07/18 09:10:41;;;;;;;4.43;2.20;;;;;;;;;;5058574;28;20471;-75
2022/07/18 09:13:07;;;;;;;5.40;2.92;;;;;;;;;;5058168;28;20425;-75
2022/07/18 09:15:33;;;;;;;5.18;3.20;;;;;;;;;;5058607;28;20417;-75
2022/07/18 09:18:00;;;;;;;3.83;2.60;;;;;;;;;;5056811;28;20428;-75
2022/07/18 09:20:27;;;;;;;4.90;2.75;;;;;;;;;;5058253;28;20426;-76
2022/07/18 09:22:54;;;;;;;7.40;3.60;;;;;;;;;;5057806;28;20435;-75
2022/07/18 09:25:21;;;;;;;5.97;3.93;;;;;;;;;;5057738;28;20898;-75
2022/07/18 09:27:48;;;;;;;4.47;3.40;;;;;;;;;;5056692;28;20943;-76
2022/07/18 09:30:24;;;;;;;5.22;3.80;;;;;;;;;;5058108;28;20417;-75
2022/07/18 09:32:52;;;;;;;7.18;3.88;;;;;;;;;;5057810;28;20416;-75
2022/07/18 09:35:19;;;;;;;5.60;3.88;;;;;;;;;;5056829;28;20415;-76
2022/07/18 09:37:57;;;;;;;6.10;4.72;;;;;;;;;;5058247;28;20422;-75
2022/07/18 09:40:24;;;;;;;4.90;4.40;;;;;;;;;;5058424;28;20418;-75
2022/07/18 09:42:51;;;;;;;6.43;3.90;;;;;;;;;;5058639;28;20908;-75
2022/07/18 09:45:22;;;;;;;7.60;5.40;;;;;;;;;;5057797;28;20540;-75
2022/07/18 09:47:50;;;;;;;5.60;4.30;;;;;;;;;;5057032;28;20417;-75
2022/07/18 09:50:20;;;;;;;6.82;4.10;;;;;;;;;;5057639;28;20424;-75
2022/07/18 09:52:55;;;;;;;7.55;4.82;;;;;;;;;;5057351;28;20425;-75
2022/07/18 09:55:23;;;;;;;5.65;5.00;;;;;;;;;;5057796;28;20416;-75
2022/07/18 09:57:57;;;;;;;6.00;4.47;;;;;;;;;;5057343;28;20906;-75
2022/07/18 10:00:23;;;;;;;5.72;4.90;;;;;;;;;;5057340;28;20826;-75
2022/07/18 10:02:50;;;;;;;7.22;5.10;;;;;;;;;;5055805;28;20503;-75
2022/07/18 10:05:16;;;;;;;8.93;4.63;;;;;;;;;;5056521;28;20421;-75
2022/07/18 10:07:43;;;;;;;7.88;5.50;;;;;;;;;;5057042;28;20427;-75
2022/07/18 10:10:09;;;;;;;8.80;6.00;;;;;;;;;;5057355;28;20422;-75
2022/07/18 10:12:37;;;;;;;6.73;5.50;;;;;;;;;;5055870;28;20415;-75
2022/07/18 10:15:04;;;;;;;6.60;5.20;;;;;;;;;;5057628;28;20421;-75
2022/07/18 10:17:31;;;;;;;7.32;5.47;;;;;;;;;;5055463;28;20445;-75
2022/07/18 10:20:02;;;;;;;7.88;4.97;;;;;;;;;;5057071;28;20415;-75
2022/07/18 10:22:29;;;;;;;6.05;4.70;;;;;;;;;;5055335;28;20502;-75
2022/07/18 10:24:55;;;;;;;5.47;4.70;;;;;;;;;;5057068;28;21008;-76
2022/07/18 10:27:23;;;;;;;6.03;4.70;;;;;;;;;;5056632;28;20421;-75
2022/07/18 10:30:10;;;;;;;6.38;4.75;;;;;;;;;;5057694;28;20954;-75
2022/07/18 10:32:36;;;;;;;5.70;4.45;;;;;;;;;;5057070;28;20405;-75
2022/07/18 10:35:02;;;;;;;5.47;4.40;;;;;;;;;;5055293;28;20411;-75
2022/07/18 10:37:33;;;;;;;6.10;5.10;;;;;;;;;;5056549;28;20774;-75
2022/07/18 10:40:20;;;;;;;6.35;4.63;;;;;;;;;;5056268;28;20820;-76
2022/07/18 10:42:46;;;;;;;6.00;4.50;;;;;;;;;;5056715;28;20417;-75
2022/07/18 10:45:28;;;;;;;6.65;4.57;;;;;;;;;;5055973;28;20413;-76
2022/07/18 10:47:54;;;;;;;8.02;5.10;;;;;;;;;;5056105;28;20424;-75
2022/07/18 10:50:21;;;;;;;6.00;4.70;;;;;;;;;;5058086;28;20413;-76
2022/07/18 10:52:58;;;;;;;5.60;4.93;;;;;;;;;;5057226;28;20546;-76
2022/07/18 10:55:28;;;;;;;7.70;4.70;;;;;;;;;;5057983;28;20907;-76
2022/07/18 10:58:09;;;;;;;5.53;4.80;;;;;;;;;;5056774;28;20424;-75
2022/07/18 11:00:37;;;;;;;8.73;4.97;;;;;;;;;;5057044;28;20411;-75
2022/07/18 11:03:05;;;;;;;6.47;5.20;;;;;;;;;;5055223;28;20912;-75
2022/07/18 11:05:33;;;;;;;7.10;4.70;;;;;;;;;;5057514;28;20473;-76
2022/07/18 11:08:24;;;;;;;6.40;5.00;;;;;;;;;;5055885;28;20464;-76
2022/07/18 11:11:08;;;;;;;6.40;5.00;;;;;;;;;;5057118;28;20425;-75
2022/07/18 11:13:36;;;;;;;6.80;5.10;;;;;;;;;;5056370;28;20420;-76
2022/07/18 11:16:06;;;;;;;5.80;4.97;;;;;;;;;;5055846;28;20457;-75
2022/07/18 11:18:33;;;;;;;7.00;5.38;;;;;;;;;;5056528;28;20425;-75
2022/07/18 11:20:59;;;;;;;5.85;5.25;;;;;;;;;;5056235;28;20432;-75
2022/07/18 11:23:26;;;;;;;7.53;5.43;;;;;;;;;;5056516;28;20415;-75
2022/07/18 11:25:54;;;;;;;5.90;5.30;;;;;;;;;;5055575;28;20511;-75
2022/07/18 11:28:21;;;;;;;7.05;5.97;;;;;;;;;;5056459;28;20439;-76
2022/07/18 11:30:59;;;;;;;7.65;5.78;;;;;;;;;;5057167;28;20419;-75
2022/07/18 11:33:28;;;;;;;6.85;5.60;;;;;;;;;;5056126;28;20416;-76
2022/07/18 11:36:02;;;;;;;7.90;5.60;;;;;;;;;;5056271;28;20909;-75
2022/07/18 11:38:28;;;;;;;6.93;5.90;;;;;;;;;;5055198;28;20778;-75
2022/07/18 11:40:55;;;;;;;8.45;5.40;;;;;;;;;;5057025;28;20892;-75
2022/07/18 11:43:22;;;;;;;8.30;5.70;;;;;;;;;;5056050;28;20464;-75
2022/07/18 11:45:48;;;;;;;7.60;5.20;;;;;;;;;;5055334;28;20777;-75
2022/07/18 11:48:21;;;;;;;9.23;6.43;;;;;;;;;;5054410;28;20415;-75
2022/07/18 11:50:49;;;;;;;7.05;5.68;;;;;;;;;;5056628;28;20413;-76
2022/07/18 11:53:15;;;;;;;7.25;5.82;;;;;;;;;;5055555;28;20417;-75
2022/07/18 11:55:42;;;;;;;6.80;5.95;;;;;;;;;;5057992;28;20411;-76
2022/07/18 11:58:08;;;;;;;6.50;5.28;;;;;;;;;;5055820;28;20416;-76
2022/07/18 12:00:35;;;;;;;6.65;5.90;;;;;;;;;;5057368;28;20946;-75
2022/07/18 12:03:05;;;;;;;8.07;5.90;;;;;;;;;;5054577;28;20413;-75
2022/07/18 12:05:32;;;;;;;6.53;5.30;;;;;;;;;;5056669;28;20785;-75
2022/07/18 12:08:00;;;;;;;5.90;5.40;;;;;;;;;;5055909;28;21018;-75
2022/07/18 12:10:26;;;;;;;7.53;5.55;;;;;;;;;;5057846;28;20785;-75
2022/07/18 12:12:53;;;;;;;7.43;5.50;;;;;;;;;;5055889;28;20956;-75
2022/07/18 12:15:20;;;;;;;6.43;5.60;;;;;;;;;;5057351;28;20422;-76
2022/07/18 12:17:50;;;;;;;8.20;5.38;;;;;;;;;;5055398;28;20417;-76
2022/07/18 12:20:17;;;;;;;8.70;6.32;;;;;;;;;;5056828;28;20503;-75
2022/07/18 12:22:58;;;;;;;6.83;5.53;;;;;;;;;;5055225;28;20414;-76
2022/07/18 12:25:35;;;;;;;6.32;5.72;;;;;;;;;;5055146;28;20408;-75
2022/07/18 12:28:12;;;;;;;6.90;5.60;;;;;;;;;;5057646;28;20415;-75
2022/07/18 12:30:38;;;;;;;6.93;5.60;;;;;;;;;;5059831;28;20422;-76
2022/07/18 12:33:08;;;;;;;7.57;5.50;;;;;;;;;;5058589;28;20412;-76
2022/07/18 12:35:35;;;;;;;6.80;5.68;;;;;;;;;;5058243;28;20413;-75
2022/07/18 12:38:02;;;;;;;6.90;5.90;;;;;;;;;;5073114;22;20407;-75
2022/07/18 12:40:40;;;;;;;6.10;5.28;;;;;;;;;;5059624;28;20415;-74
2022/07/18 12:43:08;;;;;;;6.82;5.22;;;;;;;;;;5059371;28;20409;-74
2022/07/18 12:45:34;;;;;;;7.00;5.75;;;;;;;;;;5059934;28;20527;-74
2022/07/18 12:48:01;;;;;;;6.20;5.20;;;;;;;;;;5057418;28;20424;-75
2022/07/18 12:50:27;;;;;;;8.68;5.68;;;;;;;;;;5056833;28;20427;-74
2022/07/18 12:52:54;;;;;;;6.53;5.30;;;;;;;;;;5056972;28;20490;-74
2022/07/18 12:55:20;;;;;;;7.30;5.50;;;;;;;;;;5059288;28;20411;-74
2022/07/18 12:57:48;;;;;;;7.80;5.40;;;;;;;;;;5058927;28;20469;-74
2022/07/18 13:00:14;;;;;;;6.72;5.65;;;;;;;;;;5058124;28;20417;-74
2022/07/18 13:02:40;;;;;;;7.47;5.10;;;;;;;;;;5058728;28;20419;-75
2022/07/18 13:05:07;;;;;;;7.82;5.90;;;;;;;;;;5058006;28;20411;-74
2022/07/18 13:07:33;;;;;;;7.03;5.40;;;;;;;;;;5057779;28;20515;-74
2022/07/18 13:10:00;;;;;;;6.53;5.35;;;;;;;;;;5059013;28;20421;-74
2022/07/18 13:12:26;;;;;;;8.95;5.70;;;;;;;;;;5059238;28;20412;-74
2022/07/18 13:14:54;;;;;;;6.00;5.40;;;;;;;;;;5059370;28;20415;-74
2022/07/18 13:17:20;;;;;;;5.97;5.38;;;;;;;;;;5057077;28;20428;-74
2022/07/18 13:19:46;;;;;;;8.02;5.80;;;;;;;;;;5057793;28;20468;-74
2022/07/18 13:22:13;;;;;;;6.75;5.40;;;;;;;;;;5058652;28;21902;-75
2022/07/18 13:24:39;;;;;;;6.38;4.90;;;;;;;;;;5058441;28;20416;-74
2022/07/18 13:27:06;;;;;;;7.57;5.35;;;;;;;;;;5059104;28;20415;-74
2022/07/18 13:29:32;;;;;;;6.47;5.70;;;;;;;;;;5057294;28;20404;-74
2022/07/18 13:32:00;;;;;;;6.82;5.78;;;;;;;;;;5056577;28;20418;-74
2022/07/18 13:34:27;;;;;;;7.32;5.43;;;;;;;;;;5056171;28;20996;-74
2022/07/18 13:36:53;;;;;;;8.00;5.50;;;;;;;;;;5058133;28;20420;-74
2022/07/18 13:39:20;;;;;;;6.40;5.63;;;;;;;;;;5055366;28;20425;-74
2022/07/18 13:41:46;;;;;;;6.30;5.70;;;;;;;;;;5058281;28;20417;-74
2022/07/18 13:44:13;;;;;;;8.23;6.10;;;;;;;;;;5058176;28;20451;-74
2022/07/18 13:46:40;;;;;;;7.15;5.75;;;;;;;;;;5055839;28;20777;-74
2022/07/18 13:49:08;;;;;;;8.10;6.10;;;;;;;;;;5056145;28;20519;-74
2022/07/18 13:51:36;;;;;;;7.40;5.85;;;;;;;;;;5056367;28;20419;-74
2022/07/18 13:54:03;;;;;;;6.67;5.57;;;;;;;;;;5057860;28;20492;-74
2022/07/18 13:56:29;;;;;;;6.07;5.20;;;;;;;;;;5057675;28;20410;-74
2022/07/18 13:58:55;;;;;;;6.40;5.55;;;;;;;;;;5056714;28;20784;-74
2022/07/18 14:01:22;;;;;;;7.50;5.50;;;;;;;;;;5057536;28;20417;-74
2022/07/18 14:03:48;;;;;;;6.28;5.60;;;;;;;;;;5057181;28;20764;-74
2022/07/18 14:06:16;;;;;;;6.68;5.80;;;;;;;;;;5057154;28;20412;-75
2022/07/18 14:08:42;;;;;;;7.55;5.60;;;;;;;;;;5055601;28;20432;-74
2022/07/18 14:11:08;;;;;;;6.30;5.70;;;;;;;;;;5057536;28;20413;-74
2022/07/18 14:13:34;;;;;;;6.30;5.55;;;;;;;;;;5058013;28;20895;-74
2022/07/18 14:16:01;;;;;;;9.90;6.40;;;;;;;;;;5054292;28;20432;-74
2022/07/18 14:18:27;;;;;;;6.80;6.10;;;;;;;;;;5057493;28;20417;-74
2022/07/18 14:20:54;;;;;;;5.80;5.20;;;;;;;;;;5057421;28;20447;-74
2022/07/18 14:23:21;;;;;;;6.20;5.43;;;;;;;;;;5057142;28;20422;-74
2022/07/18 14:25:48;;;;;;;8.73;6.00;;;;;;;;;;5056069;28;20416;-74
2022/07/18 14:28:14;;;;;;;6.57;5.70;;;;;;;;;;5057138;28;20417;-74
2022/07/18 14:30:40;;;;;;;8.88;6.05;;;;;;;;;;5056536;28;20421;-74
2022/07/18 14:33:07;;;;;;;6.20;5.60;;;;;;;;;;5056752;28;20413;-74
2022/07/18 14:35:33;;;;;;;7.47;6.00;;;;;;;;;;5057051;28;20486;-75
2022/07/18 14:37:59;;;;;;;6.45;5.85;;;;;;;;;;5056626;28;20421;-74
2022/07/18 14:40:27;;;;;;;6.22;5.45;;;;;;;;;;5057758;28;20411;-75
2022/07/18 14:42:53;;;;;;;7.47;6.10;;;;;;;;;;5055611;28;20417;-74
2022/07/18 14:45:20;;;;;;;6.93;5.55;;;;;;;;;;5055865;28;20419;-74
2022/07/18 14:47:46;;;;;;;8.60;6.40;;;;;;;;;;5056740;28;20409;-74